Time;durP1;ratioP1;P1;durP2;ratioP2;P2;SDS_P1;SDS_P2;PMS_P1;PMS_P2;Temp;Humidity;BMP_temperature;BMP_pressure;BME280_temperature;BME280_humidity;BME280_pressure;Samples;Min_cycle;Max_cycle;Signal;HPM_P1;HPM_P2
2022/09/20 00:02:07;;;;;;;3.70;1.60;;;;;;;9.34;100.00;100708.78;5051800;28;20592;-76
2022/09/20 00:04:33;;;;;;;6.70;1.83;;;;;;;9.39;100.00;100700.94;5051590;28;20644;-76
2022/09/20 00:06:59;;;;;;;5.07;1.63;;;;;;;9.46;100.00;100694.78;5051709;28;20206;-75
2022/09/20 00:09:27;;;;;;;4.40;1.50;;;;;;;9.62;100.00;100712.88;5052047;28;20232;-76
2022/09/20 00:11:54;;;;;;;9.13;1.90;;;;;;;9.69;100.00;100732.75;5051771;28;20213;-76
2022/09/20 00:14:20;;;;;;;9.57;2.47;;;;;;;9.44;100.00;100734.78;5051600;28;20229;-76
2022/09/20 00:16:47;;;;;;;4.40;1.60;;;;;;;9.38;100.00;100717.44;5051257;28;20227;-76
2022/09/20 00:19:18;;;;;;;8.17;2.90;;;;;;;9.32;100.00;100701.88;5051889;28;20206;-76
2022/09/20 00:21:44;;;;;;;6.17;1.77;;;;;;;9.27;100.00;100698.44;5051678;28;20328;-76
2022/09/20 00:24:11;;;;;;;3.63;1.40;;;;;;;9.23;100.00;100691.53;5051462;28;20232;-76
2022/09/20 00:26:39;;;;;;;7.47;1.50;;;;;;;9.22;100.00;100687.22;5051343;28;20679;-76
2022/09/20 00:29:06;;;;;;;4.87;1.50;;;;;;;9.20;100.00;100702.00;5051460;28;20209;-76
2022/09/20 00:31:34;;;;;;;5.20;1.30;;;;;;;9.18;100.00;100702.00;5051702;28;20236;-76
2022/09/20 00:36:45;;;;;;;3.70;1.60;;;;;;;9.18;100.00;100704.63;5051115;28;20245;-76
2022/09/20 00:39:13;;;;;;;3.03;1.40;;;;;;;9.30;100.00;100712.31;5051371;28;20205;-76
2022/09/20 00:41:42;;;;;;;5.73;1.17;;;;;;;9.28;100.00;100718.44;5051218;28;20210;-76
2022/09/20 00:44:56;;;;;;;7.23;1.40;;;;;;;9.19;100.00;100723.69;5051393;28;20232;-76
2022/09/20 00:47:30;;;;;;;4.20;1.73;;;;;;;9.16;100.00;100727.22;5051186;28;20198;-75
2022/09/20 00:50:05;;;;;;;4.23;2.00;;;;;;;9.07;100.00;100722.06;5051508;28;20284;-76
2022/09/20 00:52:32;;;;;;;7.67;2.03;;;;;;;9.06;100.00;100713.41;5052459;28;20213;-76
2022/09/20 00:55:00;;;;;;;7.33;2.50;;;;;;;9.23;100.00;100717.59;5054602;28;20784;-76
2022/09/20 00:57:33;;;;;;;3.50;2.70;;;;;;;9.11;100.00;100713.34;5054822;28;20648;-76
2022/09/20 01:00:02;;;;;;;5.53;2.20;;;;;;;9.06;100.00;100712.53;5054668;28;20296;-76
2022/09/20 01:02:32;;;;;;;10.80;3.13;;;;;;;9.12;100.00;100715.09;5054914;28;20210;-76
2022/09/20 01:04:59;;;;;;;7.17;3.53;;;;;;;9.09;100.00;100712.50;5054433;28;20640;-76
2022/09/20 01:07:27;;;;;;;6.30;2.27;;;;;;;9.16;100.00;100719.41;5054666;28;20613;-76
2022/09/20 01:09:53;;;;;;;4.43;2.60;;;;;;;9.06;100.00;100715.16;5054607;28;20746;-76
2022/09/20 01:12:24;;;;;;;5.73;2.20;;;;;;;9.02;100.00;100727.31;5054436;28;20205;-76
2022/09/20 01:14:53;;;;;;;4.63;2.27;;;;;;;8.97;100.00;100718.66;5054340;28;20225;-76
2022/09/20 01:17:24;;;;;;;7.10;2.53;;;;;;;9.03;100.00;100718.63;5054558;28;20225;-76
2022/09/20 01:20:05;;;;;;;8.07;2.50;;;;;;;9.13;100.00;100722.88;5054548;28;20206;-76
2022/09/20 01:22:43;;;;;;;6.67;2.73;;;;;;;9.00;100.00;100726.47;5054144;28;20777;-76
2022/09/20 01:25:15;;;;;;;5.90;3.50;;;;;;;8.94;100.00;100729.13;5053919;28;20217;-75
2022/09/20 01:27:45;;;;;;;7.70;3.53;;;;;;;8.97;100.00;100730.81;5054538;28;20288;-76
2022/09/20 01:30:16;;;;;;;7.17;3.27;;;;;;;9.01;100.00;100730.78;5054203;28;20213;-76
2022/09/20 01:32:51;;;;;;;8.10;2.97;;;;;;;9.00;100.00;100738.59;5054350;28;20216;-76
2022/09/20 01:35:21;;;;;;;7.67;3.67;;;;;;;9.00;100.00;100736.00;5053923;28;20625;-76
2022/09/20 01:37:59;;;;;;;8.30;3.70;;;;;;;9.02;100.00;100740.34;5053718;28;20265;-76
2022/09/20 01:40:35;;;;;;;6.63;3.17;;;;;;;9.02;100.00;100745.53;5053973;28;20206;-76
2022/09/20 01:43:13;;;;;;;4.70;2.20;;;;;;;9.09;100.00;100742.00;5053939;28;20683;-76
2022/09/20 01:45:44;;;;;;;8.70;2.70;;;;;;;9.00;100.00;100741.19;5053621;28;20298;-76
2022/09/20 01:48:18;;;;;;;4.07;2.40;;;;;;;9.02;100.00;100735.13;5054093;28;20208;-76
2022/09/20 01:51:06;;;;;;;7.37;2.37;;;;;;;9.10;100.00;100735.94;5053890;28;20267;-76
2022/09/20 01:54:02;;;;;;;5.73;2.17;;;;;;;9.21;100.00;100740.19;5051808;28;20206;-76
2022/09/20 01:56:59;;;;;;;8.27;2.43;;;;;;;9.21;100.00;100741.03;5053721;28;20212;-76
2022/09/20 01:59:49;;;;;;;5.53;1.77;;;;;;;9.26;100.00;100738.41;5053682;28;20619;-76
2022/09/20 02:02:35;;;;;;;6.60;2.20;;;;;;;9.21;100.00;100742.78;5053428;28;20618;-76
2022/09/20 02:05:43;;;;;;;6.47;2.50;;;;;;;9.23;100.00;100736.69;5053313;28;20431;-76
2022/09/20 02:08:51;;;;;;;7.73;2.30;;;;;;;9.24;100.00;100747.97;5053609;28;20205;-76
2022/09/20 02:11:20;;;;;;;5.77;2.53;;;;;;;9.27;100.00;100750.53;5017569;28;20209;-75
2022/09/20 02:14:03;;;;;;;8.87;2.60;;;;;;;9.38;100.00;100759.13;5053273;28;20251;-76
2022/09/20 02:16:53;;;;;;;6.70;2.57;;;;;;;9.27;100.00;100761.81;5053117;28;20205;-76
2022/09/20 02:19:46;;;;;;;6.17;1.97;;;;;;;9.34;100.00;100760.91;5053236;28;20667;-75
2022/09/20 02:22:40;;;;;;;5.63;2.70;;;;;;;9.31;100.00;100762.66;5053240;28;20271;-76
2022/09/20 02:25:17;;;;;;;6.07;2.93;;;;;;;9.42;100.00;100762.59;5047290;28;20271;-76
2022/09/20 02:27:53;;;;;;;5.47;2.10;;;;;;;9.36;100.00;100766.09;5053419;28;20609;-76
2022/09/20 02:30:33;;;;;;;6.37;2.27;;;;;;;9.46;100.00;100772.09;5053271;28;20267;-76
2022/09/20 02:33:23;;;;;;;6.37;2.43;;;;;;;9.31;100.00;100778.28;5053176;28;20259;-76
2022/09/20 02:36:09;;;;;;;2.70;2.23;;;;;;;9.30;100.00;100773.97;5051155;28;20313;-76
2022/09/20 02:38:52;;;;;;;4.70;2.10;;;;;;;9.24;100.00;100768.81;5052794;28;20229;-76
2022/09/20 02:41:37;;;;;;;11.77;2.53;;;;;;;9.21;100.00;100763.63;5052778;28;20675;-76
2022/09/20 02:44:09;;;;;;;6.40;2.57;;;;;;;9.04;100.00;100753.31;5052475;28;20699;-76
2022/09/20 02:46:45;;;;;;;5.53;2.53;;;;;;;9.00;100.00;100756.81;5052674;28;20205;-76
2022/09/20 02:49:22;;;;;;;8.40;3.30;;;;;;;8.92;100.00;100744.75;5052780;28;20267;-76
2022/09/20 02:51:55;;;;;;;7.30;2.60;;;;;;;8.91;100.00;100755.16;5052485;28;20201;-76
2022/09/20 02:54:33;;;;;;;7.20;3.17;;;;;;;8.90;100.00;100756.03;5052702;28;20273;-76
2022/09/20 02:57:05;;;;;;;9.00;3.00;;;;;;;8.87;100.00;100756.06;5052539;28;20448;-76
2022/09/20 02:59:41;;;;;;;6.33;3.47;;;;;;;8.93;100.00;100763.81;5052463;28;20209;-77
2022/09/20 03:02:21;;;;;;;7.27;2.80;;;;;;;8.82;100.00;100768.22;5052463;28;20201;-76
2022/09/20 03:05:01;;;;;;;10.67;3.00;;;;;;;8.77;100.00;100770.88;5052287;28;20241;-76
2022/09/20 03:07:37;;;;;;;8.23;2.90;;;;;;;8.70;100.00;100770.06;5052461;28;20274;-76
2022/09/20 03:10:14;;;;;;;5.50;2.93;;;;;;;8.75;100.00;100777.81;5052522;28;20208;-76
2022/09/20 03:12:52;;;;;;;5.67;3.07;;;;;;;8.75;100.00;100780.44;5052216;28;20212;-76
2022/09/20 03:15:29;;;;;;;6.23;3.30;;;;;;;8.83;100.00;100775.19;5051522;28;20225;-76
2022/09/20 03:18:07;;;;;;;5.97;2.70;;;;;;;8.83;100.00;100783.00;5052055;28;20627;-76
2022/09/20 03:20:46;;;;;;;4.67;2.77;;;;;;;8.84;100.00;100776.91;5052404;28;20693;-76
2022/09/20 03:23:31;;;;;;;7.60;3.03;;;;;;;8.81;100.00;100777.78;5047173;28;20730;-76
2022/09/20 03:26:07;;;;;;;11.60;3.40;;;;;;;8.79;100.00;100779.53;5032150;28;20226;-76
2022/09/20 03:28:48;;;;;;;5.80;2.90;;;;;;;8.85;100.00;100787.31;5032163;28;20613;-76
2022/09/20 03:31:24;;;;;;;5.97;3.80;;;;;;;8.88;100.00;100781.19;5032051;28;20634;-76
2022/09/20 03:34:03;;;;;;;5.17;3.57;;;;;;;8.89;100.00;100786.41;5032293;28;20206;-76
2022/09/20 03:36:50;;;;;;;7.40;3.23;;;;;;;8.98;100.00;100780.28;5032120;28;20209;-75
2022/09/20 03:39:40;;;;;;;7.20;3.77;;;;;;;8.96;100.00;100784.66;5032283;28;20212;-76
2022/09/20 03:42:19;;;;;;;5.40;3.00;;;;;;;8.97;100.00;100788.97;5032170;28;20557;-76
2022/09/20 03:45:06;;;;;;;6.83;3.47;;;;;;;8.98;100.00;100782.91;5031536;28;20719;-77
2022/09/20 03:47:55;;;;;;;7.87;3.87;;;;;;;9.04;100.00;100787.16;5031873;28;20289;-76
2022/09/20 03:50:45;;;;;;;9.83;3.20;;;;;;;9.07;100.00;100789.78;5032133;28;20257;-77
2022/09/20 03:53:54;;;;;;;4.13;2.80;;;;;;;9.10;100.00;100793.22;5046901;28;20212;-75
2022/09/20 03:56:38;;;;;;;4.87;3.00;;;;;;;9.06;100.00;100796.72;5031740;28;20201;-76
2022/09/20 03:59:24;;;;;;;7.93;3.30;;;;;;;9.15;100.00;100786.22;5031685;28;20636;-76
2022/09/20 04:02:06;;;;;;;6.20;3.10;;;;;;;9.03;100.00;100794.13;5031972;28;20209;-76
2022/09/20 04:04:42;;;;;;;8.43;3.60;;;;;;;9.02;100.00;100796.72;5031975;28;20233;-76
2022/09/20 04:07:20;;;;;;;7.20;3.30;;;;;;;9.14;100.00;100781.03;5031925;28;20205;-76
2022/09/20 04:10:02;;;;;;;11.50;3.53;;;;;;;9.08;100.00;100787.16;5031858;28;20201;-76
2022/09/20 04:12:38;;;;;;;6.17;3.23;;;;;;;9.19;100.00;100794.88;5031805;28;20209;-77
2022/09/20 04:15:20;;;;;;;9.13;3.33;;;;;;;9.10;100.00;100805.38;5031692;28;20605;-75
2022/09/20 04:17:57;;;;;;;7.77;4.07;;;;;;;9.06;100.00;100808.88;5031754;28;20234;-76
2022/09/20 04:20:31;;;;;;;4.70;3.03;;;;;;;9.10;100.00;100798.44;5031791;28;20268;-76
2022/09/20 04:23:05;;;;;;;7.57;3.67;;;;;;;9.06;100.00;100804.53;5049737;28;20224;-76
2022/09/20 04:25:39;;;;;;;8.83;3.20;;;;;;;9.05;100.00;100797.59;5051600;28;20222;-76
2022/09/20 04:28:13;;;;;;;6.20;3.60;;;;;;;9.12;100.00;100796.69;5055425;28;20196;-76
2022/09/20 04:30:42;;;;;;;8.27;4.20;;;;;;;9.24;100.00;100800.06;5055445;28;20707;-76
2022/09/20 04:33:18;;;;;;;15.63;4.30;;;;;;;9.32;100.00;100808.69;5055332;28;20202;-77
2022/09/20 04:38:38;;;;;;;7.27;4.20;;;;;;;9.36;100.00;100818.22;5055316;28;20252;-76
2022/09/20 04:41:21;;;;;;;6.53;2.80;;;;;;;9.38;100.00;100826.03;5047153;28;20250;-75
2022/09/20 04:44:12;;;;;;;7.43;2.70;;;;;;;9.42;100.00;100822.50;5045706;28;20199;-76
2022/09/20 04:47:07;;;;;;;11.57;3.23;;;;;;;9.33;100.00;100831.25;5045764;28;20605;-76
2022/09/20 04:50:11;;;;;;;8.10;3.53;;;;;;;9.29;100.00;100832.16;5046648;28;20194;-76
2022/09/20 04:53:26;;;;;;;7.30;3.63;;;;;;;9.26;100.00;100825.22;5050538;28;20325;-76
2022/09/20 04:56:00;;;;;;;5.43;3.70;;;;;;;9.31;100.00;100828.66;5023824;28;20218;-76
2022/09/20 04:58:45;;;;;;;12.57;4.60;;;;;;;9.41;100.00;100831.19;5039487;28;20252;-77
2022/09/20 05:01:54;;;;;;;7.50;4.33;;;;;;;9.41;100.00;100839.00;5046071;28;20199;-77
2022/09/20 05:05:13;;;;;;;7.23;3.90;;;;;;;9.52;100.00;100832.84;5046666;28;20230;-76
2022/09/20 05:08:21;;;;;;;8.53;4.30;;;;;;;9.52;100.00;100842.41;5045807;28;20248;-76
2022/09/20 05:11:13;;;;;;;11.20;4.40;;;;;;;9.52;100.00;100842.41;5044990;28;20686;-76
2022/09/20 05:14:01;;;;;;;15.07;5.20;;;;;;;9.56;100.00;100845.84;5044917;28;20209;-76
2022/09/20 05:16:45;;;;;;;7.03;4.80;;;;;;;9.52;100.00;100848.47;5045139;28;20202;-76
2022/09/20 05:19:25;;;;;;;10.17;5.80;;;;;;;9.47;100.00;100850.22;5044902;28;20230;-75
2022/09/20 05:22:18;;;;;;;9.47;5.93;;;;;;;9.46;100.00;100843.31;5048070;28;20622;-76
2022/09/20 05:25:05;;;;;;;7.40;5.50;;;;;;;9.40;100.00;100847.72;5047147;28;20280;-75
2022/09/20 05:27:41;;;;;;;9.20;5.93;;;;;;;9.46;100.00;100832.88;5044821;28;20734;-76
2022/09/20 05:30:19;;;;;;;6.30;5.57;;;;;;;9.50;100.00;100837.19;5043277;28;20246;-75
2022/09/20 05:32:52;;;;;;;13.13;6.80;;;;;;;9.51;100.00;100838.06;5044601;28;20291;-76
2022/09/20 05:35:26;;;;;;;9.07;6.10;;;;;;;9.61;100.00;100852.72;5044454;28;20222;-75
2022/09/20 05:38:05;;;;;;;9.37;5.63;;;;;;;9.62;100.00;100851.00;5043727;28;20217;-75
2022/09/20 05:40:37;;;;;;;6.53;5.57;;;;;;;9.53;100.00;100852.81;5044904;28;20203;-75
2022/09/20 05:43:10;;;;;;;8.93;5.77;;;;;;;9.53;100.00;100863.25;5044020;28;20213;-76
2022/09/20 05:45:57;;;;;;;9.77;6.73;;;;;;;9.58;100.00;100867.56;5042590;28;20270;-77
2022/09/20 05:48:32;;;;;;;15.20;6.10;;;;;;;9.71;100.00;100866.56;5044476;28;20612;-76
2022/09/20 05:51:06;;;;;;;10.23;5.93;;;;;;;9.53;100.00;100873.66;5045977;28;20200;-77
2022/09/20 05:54:00;;;;;;;11.60;6.60;;;;;;;9.41;100.00;100865.91;5049885;28;20667;-77
2022/09/20 05:56:37;;;;;;;7.33;6.43;;;;;;;9.40;100.00;100869.41;5044253;28;20228;-77
2022/09/20 05:59:22;;;;;;;9.13;6.57;;;;;;;9.40;100.00;100877.22;5044262;28;20275;-76
2022/09/20 06:02:02;;;;;;;11.27;6.90;;;;;;;9.32;100.00;100879.88;5047862;28;20193;-79
2022/09/20 06:04:35;;;;;;;7.47;5.73;;;;;;;9.38;100.00;100875.53;5045141;28;20214;-76
2022/09/20 06:07:08;;;;;;;13.40;5.90;;;;;;;9.51;100.00;100875.44;5043981;28;20206;-76
2022/09/20 06:09:53;;;;;;;10.67;5.70;;;;;;;9.60;100.00;100886.66;5043970;28;20676;-76
2022/09/20 06:12:35;;;;;;;13.07;5.40;;;;;;;9.46;100.00;100890.22;5044218;28;20204;-77
2022/09/20 06:15:15;;;;;;;11.30;5.87;;;;;;;9.41;100.00;100888.50;5043677;28;20976;-77
2022/09/20 06:17:49;;;;;;;8.07;5.00;;;;;;;9.45;100.00;100885.88;5041264;28;20210;-76
2022/09/20 06:20:24;;;;;;;8.53;5.40;;;;;;;9.60;100.00;100889.25;5043803;28;20290;-77
2022/09/20 06:22:54;;;;;;;9.10;4.30;;;;;;;9.66;100.00;100894.41;5052665;28;20202;-77
2022/09/20 06:25:26;;;;;;;14.03;4.97;;;;;;;9.56;100.00;100896.22;5053310;28;20224;-77
2022/09/20 06:27:58;;;;;;;9.60;5.03;;;;;;;9.47;100.00;100891.94;5053368;28;20203;-76
2022/09/20 06:30:29;;;;;;;9.93;4.53;;;;;;;9.48;100.00;100895.41;5052832;28;20213;-76
2022/09/20 06:32:59;;;;;;;10.37;4.30;;;;;;;9.40;100.00;100892.88;5052871;28;20578;-76
2022/09/20 06:35:35;;;;;;;12.77;4.70;;;;;;;9.49;100.00;100895.41;5054476;28;20264;-76
2022/09/20 06:43:48;;;;;;;6.83;4.10;;;;;;;9.51;100.00;100901.47;5054895;28;20212;-77
2022/09/20 06:46:16;;;;;;;7.83;4.40;;;;;;;9.46;100.00;100910.19;5054166;28;20212;-78
2022/09/20 06:48:43;;;;;;;6.63;4.40;;;;;;;9.52;100.00;100910.16;5056163;28;20295;-78
2022/09/20 06:51:11;;;;;;;9.00;4.93;;;;;;;9.52;100.00;100917.97;5056576;28;20219;-80
2022/09/20 06:53:40;;;;;;;13.20;4.40;;;;;;;9.56;100.00;100918.81;5058168;28;20296;-79
2022/09/20 06:56:10;;;;;;;7.20;4.03;;;;;;;9.49;100.00;100924.09;5058338;28;20209;-80
2022/09/20 06:58:36;;;;;;;6.77;4.80;;;;;;;9.50;100.00;100933.63;5058240;28;20229;-80
2022/09/20 07:01:03;;;;;;;10.13;4.67;;;;;;;9.64;100.00;100924.84;5061058;28;20675;-81
2022/09/20 07:03:30;;;;;;;11.82;6.10;;;;;;;9.56;100.00;100931.84;5060006;28;20432;-81
2022/09/20 07:05:59;;;;;;;11.00;4.63;;;;;;;9.64;100.00;100930.91;5061789;28;20297;-81
2022/09/20 07:08:25;;;;;;;8.50;4.07;;;;;;;9.63;100.00;100942.22;5058137;28;20275;-80
2022/09/20 07:10:53;;;;;;;6.87;3.67;;;;;;;9.72;100.00;100941.28;5055945;28;20210;-81
2022/09/20 07:13:20;;;;;;;7.10;4.40;;;;;;;9.79;100.00;100940.38;5055727;28;20209;-79
2022/09/20 07:15:46;;;;;;;6.50;3.97;;;;;;;9.80;100.00;100939.47;5054913;28;20604;-79
2022/09/20 07:18:13;;;;;;;12.33;5.40;;;;;;;9.80;100.00;100941.22;5054933;28;20239;-79
2022/09/20 07:20:40;;;;;;;7.57;3.60;;;;;;;9.76;100.00;100947.34;5054409;28;20248;-79
2022/09/20 07:23:08;;;;;;;7.40;3.70;;;;;;;9.89;100.00;100946.34;5054385;28;20243;-79
2022/09/20 07:25:36;;;;;;;6.77;3.83;;;;;;;9.99;100.00;100958.47;5054970;28;20217;-79
2022/09/20 07:28:03;;;;;;;9.77;4.47;;;;;;;10.11;100.00;100960.97;5055847;28;20216;-79
2022/09/20 07:30:29;;;;;;;6.23;3.77;;;;;;;10.13;100.00;100966.19;5056296;28;20209;-79
2022/09/20 07:32:56;;;;;;;6.67;3.93;;;;;;;10.19;100.00;100970.44;5055770;28;20692;-80
2022/09/20 07:35:22;;;;;;;7.83;3.60;;;;;;;10.36;100.00;100972.97;5055858;28;20234;-79
2022/09/20 07:37:55;;;;;;;9.27;3.10;;;;;;;10.36;100.00;100980.78;5056409;28;20212;-80
2022/09/20 07:40:24;;;;;;;10.60;3.83;;;;;;;10.29;100.00;100993.84;5056305;28;20257;-79
2022/09/20 07:42:50;;;;;;;5.40;2.90;;;;;;;10.45;100.00;100985.94;5056232;28;20494;-79
2022/09/20 07:45:17;;;;;;;8.57;3.70;;;;;;;10.55;100.00;100991.94;5055823;28;20233;-79
2022/09/20 07:47:45;;;;;;;6.83;4.57;;;;;;;10.50;100.00;100987.63;5056271;28;20749;-79
2022/09/20 07:50:11;;;;;;;4.93;3.80;;;;;;;10.30;100.00;100990.38;5055471;28;20205;-79
2022/09/20 07:52:38;;;;;;;7.63;3.20;;;;;;;10.35;100.00;101003.41;5056181;28;20205;-79
2022/09/20 07:55:05;;;;;;;9.60;4.13;;;;;;;10.39;100.00;101004.25;5055965;28;20226;-79
2022/09/20 07:57:36;;;;;;;13.17;4.30;;;;;;;10.40;100.00;101012.03;5056016;28;20201;-79
2022/09/20 08:00:05;;;;;;;9.30;3.70;;;;;;;10.17;100.00;101016.56;5055740;28;20236;-78
2022/09/20 08:02:31;;;;;;;8.67;3.80;;;;;;;10.23;100.00;100998.28;5058559;28;20213;-79
2022/09/20 08:04:58;;;;;;;6.07;3.90;;;;;;;10.37;100.00;101006.00;5059930;28;20226;-80
2022/09/20 08:07:24;;;;;;;10.33;4.97;;;;;;;10.41;100.00;101018.16;5059816;28;20205;-79
2022/09/20 08:09:51;;;;;;;6.17;4.07;;;;;;;10.34;100.00;101025.16;5059878;28;20202;-79
2022/09/20 08:12:18;;;;;;;8.20;3.97;;;;;;;10.50;100.00;101031.09;5059535;28;20251;-78
2022/09/20 08:14:46;;;;;;;6.63;3.87;;;;;;;10.63;100.00;101031.88;5059717;28;20230;-79
2022/09/20 08:17:12;;;;;;;5.93;3.90;;;;;;;10.44;100.00;101050.28;5059921;28;20643;-80
2022/09/20 08:19:39;;;;;;;6.93;4.03;;;;;;;10.45;100.00;101043.34;5059762;28;20271;-79
2022/09/20 08:22:07;;;;;;;7.10;4.23;;;;;;;10.64;100.00;101042.28;5059074;28;20285;-79
2022/09/20 08:24:33;;;;;;;9.03;4.33;;;;;;;10.77;100.00;101047.41;5059487;28;20316;-79
2022/09/20 08:27:00;;;;;;;6.87;4.00;;;;;;;10.96;100.00;101048.06;5059162;28;20227;-79
2022/09/20 08:29:26;;;;;;;7.97;4.40;;;;;;;11.13;100.00;101056.59;5059561;28;20270;-79
2022/09/20 08:31:57;;;;;;;5.87;3.80;;;;;;;11.30;100.00;101064.25;5059263;28;20699;-78
2022/09/20 08:34:24;;;;;;;7.00;3.53;;;;;;;11.41;100.00;101077.16;5059733;28;20221;-78
2022/09/20 08:36:55;;;;;;;8.33;4.30;;;;;;;11.56;100.00;101071.75;5059150;28;20208;-79
2022/09/20 08:39:21;;;;;;;7.60;3.80;;;;;;;11.64;100.00;101079.50;5059525;28;20316;-79
2022/09/20 08:41:55;;;;;;;6.13;3.80;;;;;;;11.72;100.00;101103.81;5059871;28;20210;-80
2022/09/20 08:44:25;;;;;;;4.73;3.73;;;;;;;11.79;99.26;101143.81;5059359;28;20324;-79
2022/09/20 08:47:04;;;;;;;6.03;3.93;;;;;;;11.99;98.76;101154.94;5058870;28;20238;-80
2022/09/20 08:49:31;;;;;;;6.20;4.90;;;;;;;12.08;96.88;101196.66;5059486;28;20201;-79
2022/09/20 08:51:59;;;;;;;6.40;4.33;;;;;;;12.10;95.42;101212.34;5059543;28;20206;-79
2022/09/20 08:54:26;;;;;;;4.90;4.40;;;;;;;12.16;95.49;101222.75;5059087;28;20731;-80
2022/09/20 08:56:53;;;;;;;6.47;4.07;;;;;;;12.07;95.76;101226.34;5059174;28;20210;-79
2022/09/20 08:59:22;;;;;;;5.13;4.33;;;;;;;11.95;95.71;101221.25;5059447;28;20276;-80
2022/09/20 09:01:50;;;;;;;5.80;4.00;;;;;;;11.80;96.32;101203.97;5059865;28;20242;-80
2022/09/20 09:04:20;;;;;;;5.47;4.17;;;;;;;11.80;95.85;101206.56;5058123;28;20595;-80
2022/09/20 09:06:47;;;;;;;9.13;5.30;;;;;;;11.84;95.40;101217.88;5057556;28;20205;-79
2022/09/20 09:09:19;;;;;;;4.80;4.40;;;;;;;11.83;95.81;101216.13;5057535;28;20234;-80
2022/09/20 09:11:48;;;;;;;7.50;5.00;;;;;;;11.67;95.77;101210.22;5057495;28;20205;-79
2022/09/20 09:17:11;;;;;;;5.10;4.50;;;;;;;12.12;94.44;101211.44;5057120;28;20213;-79
2022/09/20 09:19:47;;;;;;;5.47;4.97;;;;;;;12.40;94.32;101232.00;5057161;28;20711;-81
2022/09/20 09:22:20;;;;;;;7.30;6.57;;;;;;;12.28;91.34;101295.00;5056806;28;20685;-80
2022/09/20 09:25:06;;;;;;;6.30;5.80;;;;;;;12.13;91.07;101340.56;5057420;28;20230;-80
2022/09/20 09:27:33;;;;;;;6.53;5.13;;;;;;;12.07;91.62;101317.06;5057306;28;20201;-81
2022/09/20 09:30:01;;;;;;;6.07;5.13;;;;;;;12.09;93.08;101284.78;5056996;28;20244;-80
2022/09/20 09:32:30;;;;;;;6.00;5.40;;;;;;;12.13;93.16;101283.00;5057227;28;20212;-80
2022/09/20 09:35:22;;;;;;;7.17;5.97;;;;;;;12.17;92.98;101266.38;5057511;28;20259;-79
2022/09/20 09:37:54;;;;;;;9.70;6.53;;;;;;;12.11;92.52;101279.53;5057229;28;20214;-80
2022/09/20 09:40:21;;;;;;;8.50;7.07;;;;;;;12.14;92.93;101268.16;5056772;28;20230;-80
2022/09/20 09:42:49;;;;;;;9.07;8.17;;;;;;;12.21;92.45;101275.03;5057040;28;20596;-80
2022/09/20 09:45:26;;;;;;;9.37;8.50;;;;;;;12.12;92.33;101287.34;5056975;28;20280;-80
2022/09/20 09:47:52;;;;;;;7.90;6.90;;;;;;;12.17;91.05;101305.63;5056916;28;20677;-81
2022/09/20 09:50:25;;;;;;;7.50;6.43;;;;;;;12.12;91.07;101317.88;5056872;28;20628;-81
2022/09/20 09:52:59;;;;;;;8.23;6.93;;;;;;;12.14;91.25;101308.25;5056566;28;20206;-80
2022/09/20 09:55:37;;;;;;;8.33;5.77;;;;;;;12.25;90.62;101309.00;5056192;28;20222;-80
2022/09/20 09:58:11;;;;;;;7.37;5.90;;;;;;;12.51;90.45;101319.16;5056974;28;20212;-80
2022/09/20 10:00:44;;;;;;;5.30;4.80;;;;;;;12.74;89.82;101333.69;5056713;28;20234;-80
2022/09/20 10:03:33;;;;;;;4.70;3.17;;;;;;;12.65;87.22;101418.53;5056163;28;20600;-81
2022/09/20 10:06:11;;;;;;;3.33;2.70;;;;;;;12.68;84.98;101442.03;5056008;28;20230;-81
2022/09/20 10:08:44;;;;;;;4.73;1.80;;;;;;;12.76;84.90;101475.16;5056354;28;20270;-80
2022/09/20 10:11:28;;;;;;;7.87;3.17;;;;;;;12.89;86.75;101434.81;5056335;28;20545;-81
2022/09/20 10:14:06;;;;;;;4.07;3.63;;;;;;;12.97;88.00;101384.94;5056000;28;20210;-81
2022/09/20 10:16:49;;;;;;;5.13;3.27;;;;;;;12.99;86.39;101402.38;5056416;28;20206;-80
2022/09/20 10:19:26;;;;;;;3.23;2.90;;;;;;;13.10;85.82;101439.81;5056122;28;20229;-81
2022/09/20 10:22:02;;;;;;;4.43;2.13;;;;;;;13.12;84.40;101439.75;5055814;28;20262;-81
2022/09/20 10:24:41;;;;;;;3.20;1.97;;;;;;;13.22;84.20;101480.72;5055650;28;20223;-81
2022/09/20 10:27:26;;;;;;;4.47;1.83;;;;;;;13.27;84.25;101476.25;5056456;28;20260;-80
2022/09/20 10:30:01;;;;;;;3.47;2.13;;;;;;;13.11;83.34;101503.56;5056355;28;20239;-81
2022/09/20 10:32:41;;;;;;;4.30;1.97;;;;;;;13.00;83.57;101494.97;5055339;28;20203;-81
2022/09/20 10:35:19;;;;;;;4.07;1.97;;;;;;;13.13;85.28;101432.78;5056054;28;20265;-81
2022/09/20 10:38:02;;;;;;;4.20;1.80;;;;;;;13.17;83.65;101458.06;5055799;28;20241;-81
2022/09/20 10:43:30;;;;;;;3.30;1.40;;;;;;;12.89;83.30;101490.72;5054733;28;20209;-77
2022/09/20 10:46:10;;;;;;;3.93;1.23;;;;;;;13.04;83.33;101483.56;5054353;28;20227;-77
2022/09/20 10:48:42;;;;;;;2.40;1.33;;;;;;;13.16;84.06;101451.06;5054645;28;20229;-78
2022/09/20 10:51:16;;;;;;;3.03;1.20;;;;;;;13.18;81.66;101513.09;5053603;28;20201;-78
2022/09/20 10:53:50;;;;;;;4.67;1.40;;;;;;;13.39;82.58;101498.00;5053912;28;20203;-79
2022/09/20 10:56:27;;;;;;;1.73;1.03;;;;;;;13.37;80.33;101550.47;5054292;28;20301;-79
2022/09/20 10:59:30;;;;;;;1.53;1.10;;;;;;;13.29;78.21;101624.00;5046193;28;20635;-80
2022/09/20 11:02:12;;;;;;;3.33;1.23;;;;;;;13.56;79.06;101613.19;5035236;28;20208;-80
2022/09/20 11:05:01;;;;;;;1.47;1.13;;;;;;;13.92;79.19;101609.22;5035652;28;20235;-80
2022/09/20 11:07:42;;;;;;;3.03;1.37;;;;;;;14.10;77.38;101665.84;5035660;28;20188;-81
2022/09/20 11:10:16;;;;;;;1.80;1.30;;;;;;;14.42;77.72;101649.63;5033819;28;20211;-80
2022/09/20 11:12:49;;;;;;;1.57;1.20;;;;;;;14.46;75.54;101689.84;5034737;28;20211;-81
2022/09/20 11:15:21;;;;;;;4.07;1.33;;;;;;;14.28;74.28;101739.13;5034618;28;20224;-81
2022/09/20 11:17:57;;;;;;;2.47;1.33;;;;;;;13.96;75.14;101742.16;5035192;28;20269;-81
2022/09/20 11:20:28;;;;;;;2.20;1.13;;;;;;;14.26;75.82;101716.41;5034935;28;20226;-81
2022/09/20 11:22:59;;;;;;;2.13;1.10;;;;;;;14.00;74.37;101732.50;5053057;28;20202;-81
2022/09/20 11:25:34;;;;;;;2.67;1.30;;;;;;;14.04;75.71;101710.56;5054344;28;20310;-81
2022/09/20 11:28:09;;;;;;;4.60;1.20;;;;;;;14.01;73.58;101731.59;5054727;28;20209;-81
2022/09/20 11:30:43;;;;;;;1.43;1.17;;;;;;;14.42;74.28;101722.31;5054390;28;20669;-81
2022/09/20 11:33:18;;;;;;;3.67;1.17;;;;;;;14.68;72.66;101759.59;5054406;28;20212;-81
2022/09/20 11:35:49;;;;;;;1.43;0.70;;;;;;;13.93;69.35;101869.97;5053625;28;20232;-81
2022/09/20 11:38:22;;;;;;;2.63;0.90;;;;;;;14.47;71.35;101839.59;5054408;28;20269;-81
2022/09/20 11:40:54;;;;;;;2.30;1.03;;;;;;;15.76;64.46;101918.44;5054182;28;20722;-82
2022/09/20 11:43:24;;;;;;;4.33;2.77;;;;;;;17.36;61.79;102067.47;5055496;28;20227;-82
2022/09/20 11:45:56;;;;;;;3.83;1.63;;;;;;;18.76;57.54;102204.38;5054098;28;20229;-82
2022/09/20 11:48:28;;;;;;;3.10;1.13;;;;;;;19.93;53.26;102349.69;5054172;28;20209;-82
2022/09/20 11:51:39;;;;;;;3.77;2.20;;;;;;;19.29;52.43;102410.47;5054367;28;20206;-82
2022/09/20 11:54:35;;;;;;;4.30;1.17;;;;;;;18.81;54.52;102424.75;5048583;28;20222;-82
2022/09/20 11:57:04;;;;;;;1.80;1.07;;;;;;;17.53;57.11;102349.66;5053908;28;20302;-81
2022/09/20 11:59:35;;;;;;;1.70;0.80;;;;;;;15.69;60.25;102248.47;5053833;28;20212;-81
2022/09/20 12:02:08;;;;;;;2.33;1.07;;;;;;;16.33;61.11;102106.28;5054320;28;20205;-81
2022/09/20 12:04:36;;;;;;;2.47;0.70;;;;;;;18.57;57.33;102085.81;5054424;28;20229;-82
2022/09/20 12:07:05;;;;;;;2.23;1.20;;;;;;;17.97;53.53;102234.38;5053771;28;20255;-82
2022/09/20 12:09:35;;;;;;;3.23;1.50;;;;;;;17.31;55.64;102259.41;5054161;28;20212;-81
2022/09/20 12:12:19;;;;;;;2.77;0.93;;;;;;;16.04;59.99;102160.28;5054025;28;20580;-81
2022/09/20 12:14:54;;;;;;;1.27;0.87;;;;;;;15.92;61.00;102039.31;5053818;28;20261;-81
2022/09/20 12:17:58;;;;;;;2.80;0.90;;;;;;;15.35;59.88;102003.25;5053875;28;20619;-81
2022/09/20 12:21:04;;;;;;;1.60;0.90;;;;;;;15.89;58.74;101961.22;5053438;28;20705;-81
2022/09/20 12:24:07;;;;;;;3.63;1.00;;;;;;;17.06;57.43;102011.78;5051880;28;20205;-81